sensor_id;sensor_type;location;lat;lon;timestamp;P1;durP1;ratioP1;P2;durP2;ratioP2
51366;SDS011;37458;49.428;8.646;2022-08-11T00:01:09;5.43;;;2.10;;
51366;SDS011;37458;49.428;8.646;2022-08-11T00:03:36;2.47;;;1.83;;
51366;SDS011;37458;49.428;8.646;2022-08-11T00:06:06;2.87;;;2.03;;
51366;SDS011;37458;49.428;8.646;2022-08-11T00:08:32;2.47;;;1.90;;
51366;SDS011;37458;49.428;8.646;2022-08-11T00:11:06;3.53;;;2.27;;
51366;SDS011;37458;49.428;8.646;2022-08-11T00:13:41;4.03;;;2.47;;
51366;SDS011;37458;49.428;8.646;2022-08-11T00:16:22;3.43;;;2.07;;
51366;SDS011;37458;49.428;8.646;2022-08-11T00:18:53;3.10;;;2.07;;
51366;SDS011;37458;49.428;8.646;2022-08-11T00:24:13;2.10;;;2.00;;
51366;SDS011;37458;49.428;8.646;2022-08-11T00:26:39;2.60;;;2.13;;
51366;SDS011;37458;49.428;8.646;2022-08-11T00:29:07;2.70;;;1.97;;
51366;SDS011;37458;49.428;8.646;2022-08-11T00:31:33;2.37;;;1.93;;
51366;SDS011;37458;49.428;8.646;2022-08-11T00:34:00;4.57;;;2.17;;
51366;SDS011;37458;49.428;8.646;2022-08-11T00:36:28;2.77;;;2.30;;
51366;SDS011;37458;49.428;8.646;2022-08-11T00:38:56;2.93;;;2.17;;
51366;SDS011;37458;49.428;8.646;2022-08-11T00:50:10;2.50;;;2.10;;
51366;SDS011;37458;49.428;8.646;2022-08-11T00:53:02;2.83;;;2.20;;
51366;SDS011;37458;49.428;8.646;2022-08-11T01:09:07;2.83;;;2.00;;
51366;SDS011;37458;49.428;8.646;2022-08-11T01:14:25;4.13;;;2.20;;
51366;SDS011;37458;49.428;8.646;2022-08-11T01:17:03;4.23;;;2.20;;
51366;SDS011;37458;49.428;8.646;2022-08-11T01:27:50;5.27;;;2.30;;
51366;SDS011;37458;49.428;8.646;2022-08-11T01:33:03;4.97;;;2.30;;
51366;SDS011;37458;49.428;8.646;2022-08-11T01:38:37;3.30;;;2.10;;
51366;SDS011;37458;49.428;8.646;2022-08-11T01:41:25;3.60;;;1.90;;
51366;SDS011;37458;49.428;8.646;2022-08-11T01:47:16;2.63;;;2.30;;
51366;SDS011;37458;49.428;8.646;2022-08-11T01:53:03;3.10;;;1.93;;
51366;SDS011;37458;49.428;8.646;2022-08-11T01:55:36;4.40;;;2.20;;
51366;SDS011;37458;49.428;8.646;2022-08-11T02:06:41;4.40;;;2.13;;
51366;SDS011;37458;49.428;8.646;2022-08-11T02:11:54;4.73;;;2.20;;
51366;SDS011;37458;49.428;8.646;2022-08-11T02:14:24;3.33;;;2.33;;
51366;SDS011;37458;49.428;8.646;2022-08-11T02:27:50;2.37;;;1.80;;
51366;SDS011;37458;49.428;8.646;2022-08-11T02:30:20;3.13;;;2.03;;
51366;SDS011;37458;49.428;8.646;2022-08-11T02:33:03;5.33;;;2.10;;
51366;SDS011;37458;49.428;8.646;2022-08-11T02:38:31;2.93;;;2.23;;
51366;SDS011;37458;49.428;8.646;2022-08-11T02:41:09;2.30;;;2.10;;
51366;SDS011;37458;49.428;8.646;2022-08-11T02:44:05;2.20;;;1.90;;
51366;SDS011;37458;49.428;8.646;2022-08-11T02:49:11;6.53;;;2.00;;
51366;SDS011;37458;49.428;8.646;2022-08-11T02:57:40;3.23;;;2.33;;
51366;SDS011;37458;49.428;8.646;2022-08-11T03:00:08;3.07;;;2.00;;
51366;SDS011;37458;49.428;8.646;2022-08-11T03:02:41;2.17;;;1.93;;
51366;SDS011;37458;49.428;8.646;2022-08-11T03:18:40;3.67;;;2.40;;
51366;SDS011;37458;49.428;8.646;2022-08-11T03:26:31;3.30;;;2.00;;
51366;SDS011;37458;49.428;8.646;2022-08-11T03:31:39;3.03;;;2.13;;
51366;SDS011;37458;49.428;8.646;2022-08-11T03:34:12;3.03;;;2.30;;
51366;SDS011;37458;49.428;8.646;2022-08-11T03:44:05;2.90;;;2.17;;
51366;SDS011;37458;49.428;8.646;2022-08-11T03:46:09;3.90;;;2.00;;
51366;SDS011;37458;49.428;8.646;2022-08-11T03:51:26;5.17;;;2.00;;
51366;SDS011;37458;49.428;8.646;2022-08-11T04:05:26;3.57;;;2.30;;
51366;SDS011;37458;49.428;8.646;2022-08-11T04:37:46;6.10;;;2.30;;
51366;SDS011;37458;49.428;8.646;2022-08-11T04:57:46;4.43;;;2.30;;
51366;SDS011;37458;49.428;8.646;2022-08-11T05:00:42;3.17;;;2.20;;
51366;SDS011;37458;49.428;8.646;2022-08-11T05:08:34;2.53;;;2.10;;
51366;SDS011;37458;49.428;8.646;2022-08-11T05:13:50;2.63;;;2.00;;
51366;SDS011;37458;49.428;8.646;2022-08-11T05:16:47;4.93;;;2.20;;
51366;SDS011;37458;49.428;8.646;2022-08-11T05:19:33;2.33;;;2.13;;
51366;SDS011;37458;49.428;8.646;2022-08-11T05:22:19;2.65;;;2.00;;
51366;SDS011;37458;49.428;8.646;2022-08-11T05:25:06;3.72;;;2.30;;
51366;SDS011;37458;49.428;8.646;2022-08-11T05:28:08;3.10;;;1.98;;
51366;SDS011;37458;49.428;8.646;2022-08-11T05:31:08;4.60;;;2.05;;
51366;SDS011;37458;49.428;8.646;2022-08-11T05:33:59;5.57;;;2.30;;
51366;SDS011;37458;49.428;8.646;2022-08-11T05:36:50;4.88;;;2.22;;
51366;SDS011;37458;49.428;8.646;2022-08-11T05:39:18;3.38;;;2.50;;
51366;SDS011;37458;49.428;8.646;2022-08-11T05:42:05;2.28;;;1.95;;
51366;SDS011;37458;49.428;8.646;2022-08-11T05:44:50;8.57;;;2.10;;
51366;SDS011;37458;49.428;8.646;2022-08-11T05:47:36;4.25;;;2.30;;
51366;SDS011;37458;49.428;8.646;2022-08-11T05:50:21;6.88;;;2.35;;
51366;SDS011;37458;49.428;8.646;2022-08-11T05:53:11;4.57;;;2.60;;
51366;SDS011;37458;49.428;8.646;2022-08-11T05:55:56;8.65;;;2.17;;
51366;SDS011;37458;49.428;8.646;2022-08-11T05:58:42;3.58;;;2.10;;
51366;SDS011;37458;49.428;8.646;2022-08-11T06:01:09;2.50;;;2.30;;
51366;SDS011;37458;49.428;8.646;2022-08-11T06:03:36;6.28;;;2.25;;
51366;SDS011;37458;49.428;8.646;2022-08-11T06:06:21;4.22;;;2.30;;
51366;SDS011;37458;49.428;8.646;2022-08-11T06:08:47;3.60;;;2.65;;
51366;SDS011;37458;49.428;8.646;2022-08-11T06:11:14;3.22;;;2.20;;
51366;SDS011;37458;49.428;8.646;2022-08-11T06:13:43;4.45;;;2.67;;
51366;SDS011;37458;49.428;8.646;2022-08-11T06:16:10;2.42;;;2.22;;
51366;SDS011;37458;49.428;8.646;2022-08-11T06:18:39;2.85;;;2.30;;
51366;SDS011;37458;49.428;8.646;2022-08-11T06:21:08;5.53;;;2.45;;
51366;SDS011;37458;49.428;8.646;2022-08-11T06:23:34;5.50;;;2.88;;
51366;SDS011;37458;49.428;8.646;2022-08-11T06:26:04;5.05;;;2.50;;
51366;SDS011;37458;49.428;8.646;2022-08-11T06:28:35;3.13;;;2.45;;
51366;SDS011;37458;49.428;8.646;2022-08-11T06:31:08;4.05;;;2.63;;
51366;SDS011;37458;49.428;8.646;2022-08-11T06:39:01;4.32;;;2.80;;
51366;SDS011;37458;49.428;8.646;2022-08-11T06:41:37;2.70;;;2.50;;
51366;SDS011;37458;49.428;8.646;2022-08-11T06:49:10;4.30;;;2.78;;
51366;SDS011;37458;49.428;8.646;2022-08-11T06:51:55;4.25;;;2.70;;
51366;SDS011;37458;49.428;8.646;2022-08-11T06:54:23;9.35;;;2.92;;
51366;SDS011;37458;49.428;8.646;2022-08-11T06:56:49;6.88;;;2.50;;
51366;SDS011;37458;49.428;8.646;2022-08-11T06:59:35;3.03;;;2.58;;
51366;SDS011;37458;49.428;8.646;2022-08-11T07:02:26;4.72;;;2.83;;
51366;SDS011;37458;49.428;8.646;2022-08-11T07:04:58;4.03;;;2.88;;
51366;SDS011;37458;49.428;8.646;2022-08-11T07:13:32;2.60;;;2.40;;
51366;SDS011;37458;49.428;8.646;2022-08-11T07:16:19;3.33;;;2.88;;
51366;SDS011;37458;49.428;8.646;2022-08-11T07:18:47;3.47;;;2.78;;
51366;SDS011;37458;49.428;8.646;2022-08-11T07:21:34;3.55;;;2.95;;
51366;SDS011;37458;49.428;8.646;2022-08-11T07:24:20;6.28;;;2.45;;
51366;SDS011;37458;49.428;8.646;2022-08-11T07:27:08;3.97;;;2.90;;
51366;SDS011;37458;49.428;8.646;2022-08-11T07:29:54;5.65;;;3.00;;
51366;SDS011;37458;49.428;8.646;2022-08-11T07:32:24;4.50;;;2.83;;
51366;SDS011;37458;49.428;8.646;2022-08-11T07:34:55;3.58;;;2.72;;
51366;SDS011;37458;49.428;8.646;2022-08-11T07:37:23;4.95;;;2.72;;
51366;SDS011;37458;49.428;8.646;2022-08-11T07:39:50;3.13;;;2.80;;
51366;SDS011;37458;49.428;8.646;2022-08-11T07:42:21;2.95;;;2.75;;
51366;SDS011;37458;49.428;8.646;2022-08-11T07:44:48;3.10;;;2.90;;
51366;SDS011;37458;49.428;8.646;2022-08-11T07:47:34;3.10;;;2.80;;
51366;SDS011;37458;49.428;8.646;2022-08-11T07:50:19;3.45;;;3.00;;
51366;SDS011;37458;49.428;8.646;2022-08-11T07:53:04;6.20;;;3.08;;
51366;SDS011;37458;49.428;8.646;2022-08-11T07:55:30;6.18;;;2.95;;
51366;SDS011;37458;49.428;8.646;2022-08-11T07:57:58;3.40;;;2.80;;
51366;SDS011;37458;49.428;8.646;2022-08-11T08:00:51;3.45;;;3.15;;
51366;SDS011;37458;49.428;8.646;2022-08-11T08:03:37;3.88;;;2.72;;
51366;SDS011;37458;49.428;8.646;2022-08-11T08:06:22;4.55;;;2.90;;
51366;SDS011;37458;49.428;8.646;2022-08-11T08:09:07;3.45;;;3.15;;
51366;SDS011;37458;49.428;8.646;2022-08-11T08:11:52;4.80;;;2.92;;
51366;SDS011;37458;49.428;8.646;2022-08-11T08:14:37;4.22;;;3.28;;
51366;SDS011;37458;49.428;8.646;2022-08-11T08:17:22;3.95;;;3.20;;
51366;SDS011;37458;49.428;8.646;2022-08-11T08:20:09;3.83;;;3.53;;
51366;SDS011;37458;49.428;8.646;2022-08-11T08:22:36;5.65;;;3.78;;
51366;SDS011;37458;49.428;8.646;2022-08-11T08:25:02;3.70;;;3.40;;
51366;SDS011;37458;49.428;8.646;2022-08-11T08:27:28;3.63;;;3.33;;
51366;SDS011;37458;49.428;8.646;2022-08-11T08:29:55;8.63;;;3.85;;
51366;SDS011;37458;49.428;8.646;2022-08-11T08:32:40;4.45;;;3.65;;
51366;SDS011;37458;49.428;8.646;2022-08-11T08:35:09;5.20;;;3.75;;
51366;SDS011;37458;49.428;8.646;2022-08-11T08:37:35;11.50;;;3.97;;
51366;SDS011;37458;49.428;8.646;2022-08-11T08:40:02;7.38;;;4.00;;
51366;SDS011;37458;49.428;8.646;2022-08-11T08:42:30;7.05;;;4.45;;
51366;SDS011;37458;49.428;8.646;2022-08-11T08:45:02;4.43;;;4.10;;
51366;SDS011;37458;49.428;8.646;2022-08-11T08:47:28;4.50;;;4.20;;
51366;SDS011;37458;49.428;8.646;2022-08-11T08:49:59;5.38;;;4.57;;
51366;SDS011;37458;49.428;8.646;2022-08-11T08:52:25;5.07;;;4.60;;
51366;SDS011;37458;49.428;8.646;2022-08-11T08:54:54;8.13;;;4.50;;
51366;SDS011;37458;49.428;8.646;2022-08-11T08:57:22;5.10;;;4.65;;
51366;SDS011;37458;49.428;8.646;2022-08-11T08:59:48;5.97;;;4.35;;
51366;SDS011;37458;49.428;8.646;2022-08-11T09:02:15;4.85;;;4.45;;
51366;SDS011;37458;49.428;8.646;2022-08-11T09:04:43;4.22;;;3.92;;
51366;SDS011;37458;49.428;8.646;2022-08-11T09:07:12;4.28;;;3.90;;
51366;SDS011;37458;49.428;8.646;2022-08-11T09:09:57;6.82;;;4.35;;
51366;SDS011;37458;49.428;8.646;2022-08-11T09:12:28;3.80;;;3.50;;
51366;SDS011;37458;49.428;8.646;2022-08-11T09:14:54;4.65;;;4.13;;
51366;SDS011;37458;49.428;8.646;2022-08-11T09:17:32;4.30;;;3.80;;
51366;SDS011;37458;49.428;8.646;2022-08-11T09:19:59;4.55;;;4.25;;
51366;SDS011;37458;49.428;8.646;2022-08-11T09:22:26;5.05;;;4.55;;
51366;SDS011;37458;49.428;8.646;2022-08-11T09:25:12;4.97;;;4.57;;
51366;SDS011;37458;49.428;8.646;2022-08-11T09:27:57;4.35;;;4.05;;
51366;SDS011;37458;49.428;8.646;2022-08-11T09:30:23;4.20;;;3.90;;
51366;SDS011;37458;49.428;8.646;2022-08-11T09:32:53;4.20;;;3.80;;
51366;SDS011;37458;49.428;8.646;2022-08-11T09:35:25;4.22;;;3.90;;
51366;SDS011;37458;49.428;8.646;2022-08-11T09:37:52;3.60;;;3.40;;
51366;SDS011;37458;49.428;8.646;2022-08-11T09:40:38;4.00;;;3.53;;
51366;SDS011;37458;49.428;8.646;2022-08-11T09:43:05;3.97;;;3.67;;
51366;SDS011;37458;49.428;8.646;2022-08-11T09:45:51;5.97;;;3.90;;
51366;SDS011;37458;49.428;8.646;2022-08-11T09:48:22;6.13;;;4.00;;
51366;SDS011;37458;49.428;8.646;2022-08-11T09:50:53;3.97;;;3.70;;
51366;SDS011;37458;49.428;8.646;2022-08-11T09:53:21;3.70;;;3.40;;
51366;SDS011;37458;49.428;8.646;2022-08-11T09:55:47;6.18;;;3.72;;
51366;SDS011;37458;49.428;8.646;2022-08-11T09:58:14;5.63;;;3.78;;
51366;SDS011;37458;49.428;8.646;2022-08-11T10:00:42;4.55;;;4.07;;
51366;SDS011;37458;49.428;8.646;2022-08-11T10:03:10;4.72;;;3.63;;
51366;SDS011;37458;49.428;8.646;2022-08-11T10:05:37;4.15;;;3.75;;
51366;SDS011;37458;49.428;8.646;2022-08-11T10:08:25;3.65;;;3.35;;
51366;SDS011;37458;49.428;8.646;2022-08-11T10:10:51;3.83;;;3.50;;
51366;SDS011;37458;49.428;8.646;2022-08-11T10:13:19;4.60;;;3.28;;
51366;SDS011;37458;49.428;8.646;2022-08-11T10:15:46;3.80;;;3.40;;
51366;SDS011;37458;49.428;8.646;2022-08-11T10:18:14;3.83;;;3.55;;
51366;SDS011;37458;49.428;8.646;2022-08-11T10:21:02;3.75;;;3.30;;
51366;SDS011;37458;49.428;8.646;2022-08-11T10:23:31;3.83;;;3.50;;
51366;SDS011;37458;49.428;8.646;2022-08-11T10:26:17;5.05;;;3.33;;
51366;SDS011;37458;49.428;8.646;2022-08-11T10:29:02;3.97;;;3.30;;
51366;SDS011;37458;49.428;8.646;2022-08-11T10:31:50;7.03;;;3.28;;
51366;SDS011;37458;49.428;8.646;2022-08-11T10:34:36;3.65;;;3.33;;
51366;SDS011;37458;49.428;8.646;2022-08-11T10:37:02;6.38;;;3.70;;
51366;SDS011;37458;49.428;8.646;2022-08-11T10:39:29;3.38;;;3.08;;
51366;SDS011;37458;49.428;8.646;2022-08-11T10:41:56;4.68;;;3.72;;
51366;SDS011;37458;49.428;8.646;2022-08-11T10:44:42;7.72;;;3.40;;
51366;SDS011;37458;49.428;8.646;2022-08-11T10:47:09;3.63;;;3.22;;
51366;SDS011;37458;49.428;8.646;2022-08-11T10:49:55;4.15;;;3.72;;
51366;SDS011;37458;49.428;8.646;2022-08-11T10:52:40;3.70;;;3.40;;
51366;SDS011;37458;49.428;8.646;2022-08-11T10:55:25;4.60;;;3.70;;
51366;SDS011;37458;49.428;8.646;2022-08-11T10:58:10;6.72;;;3.95;;
51366;SDS011;37458;49.428;8.646;2022-08-11T11:00:55;4.80;;;3.60;;
51366;SDS011;37458;49.428;8.646;2022-08-11T11:03:24;4.43;;;3.90;;
51366;SDS011;37458;49.428;8.646;2022-08-11T11:05:51;4.43;;;3.65;;
51366;SDS011;37458;49.428;8.646;2022-08-11T11:08:19;4.18;;;3.88;;
51366;SDS011;37458;49.428;8.646;2022-08-11T11:11:05;7.47;;;4.25;;
51366;SDS011;37458;49.428;8.646;2022-08-11T11:13:33;3.78;;;3.47;;
51366;SDS011;37458;49.428;8.646;2022-08-11T11:16:20;5.78;;;4.10;;
51366;SDS011;37458;49.428;8.646;2022-08-11T11:19:05;4.53;;;4.22;;
51366;SDS011;37458;49.428;8.646;2022-08-11T11:21:32;5.47;;;4.10;;
51366;SDS011;37458;49.428;8.646;2022-08-11T11:27:09;4.05;;;3.75;;
51366;SDS011;37458;49.428;8.646;2022-08-11T11:29:30;4.25;;;4.00;;
51366;SDS011;37458;49.428;8.646;2022-08-11T11:32:15;6.00;;;3.70;;
51366;SDS011;37458;49.428;8.646;2022-08-11T11:37:28;4.13;;;3.78;;
51366;SDS011;37458;49.428;8.646;2022-08-11T11:39:54;4.53;;;4.10;;
51366;SDS011;37458;49.428;8.646;2022-08-11T11:42:21;5.53;;;4.53;;
51366;SDS011;37458;49.428;8.646;2022-08-11T11:44:48;4.90;;;4.60;;
51366;SDS011;37458;49.428;8.646;2022-08-11T11:47:14;5.75;;;5.15;;
51366;SDS011;37458;49.428;8.646;2022-08-11T11:49:44;5.38;;;5.05;;
51366;SDS011;37458;49.428;8.646;2022-08-11T11:52:12;5.93;;;5.28;;
51366;SDS011;37458;49.428;8.646;2022-08-11T11:54:41;6.55;;;5.20;;
51366;SDS011;37458;49.428;8.646;2022-08-11T11:57:07;5.43;;;5.00;;
51366;SDS011;37458;49.428;8.646;2022-08-11T11:59:52;7.88;;;5.00;;
51366;SDS011;37458;49.428;8.646;2022-08-11T12:02:38;5.78;;;5.30;;
51366;SDS011;37458;49.428;8.646;2022-08-11T12:05:05;7.53;;;5.55;;
51366;SDS011;37458;49.428;8.646;2022-08-11T12:07:32;5.78;;;5.38;;
51366;SDS011;37458;49.428;8.646;2022-08-11T12:10:17;5.32;;;5.00;;
51366;SDS011;37458;49.428;8.646;2022-08-11T12:12:44;5.60;;;5.20;;
51366;SDS011;37458;49.428;8.646;2022-08-11T12:15:29;6.18;;;5.70;;
51366;SDS011;37458;49.428;8.646;2022-08-11T12:17:55;6.30;;;5.88;;
51366;SDS011;37458;49.428;8.646;2022-08-11T12:20:22;5.20;;;4.72;;
51366;SDS011;37458;49.428;8.646;2022-08-11T12:22:48;5.15;;;4.80;;
51366;SDS011;37458;49.428;8.646;2022-08-11T12:25:33;6.18;;;4.90;;
51366;SDS011;37458;49.428;8.646;2022-08-11T12:28:19;5.57;;;4.95;;
51366;SDS011;37458;49.428;8.646;2022-08-11T12:30:46;5.50;;;5.10;;
51366;SDS011;37458;49.428;8.646;2022-08-11T12:33:13;5.50;;;5.13;;
51366;SDS011;37458;49.428;8.646;2022-08-11T12:35:39;5.22;;;4.82;;
51366;SDS011;37458;49.428;8.646;2022-08-11T12:38:06;4.88;;;4.47;;
51366;SDS011;37458;49.428;8.646;2022-08-11T12:40:32;7.90;;;4.53;;
51366;SDS011;37458;49.428;8.646;2022-08-11T12:43:18;4.85;;;4.20;;
51366;SDS011;37458;49.428;8.646;2022-08-11T12:46:08;4.30;;;4.05;;
51366;SDS011;37458;49.428;8.646;2022-08-11T12:48:35;4.70;;;3.88;;
51366;SDS011;37458;49.428;8.646;2022-08-11T12:51:24;5.07;;;4.15;;
51366;SDS011;37458;49.428;8.646;2022-08-11T12:54:11;4.63;;;4.20;;
51366;SDS011;37458;49.428;8.646;2022-08-11T12:56:39;4.53;;;4.22;;
51366;SDS011;37458;49.428;8.646;2022-08-11T12:59:24;5.05;;;4.72;;
51366;SDS011;37458;49.428;8.646;2022-08-11T13:02:14;6.07;;;5.07;;
51366;SDS011;37458;49.428;8.646;2022-08-11T13:05:00;5.70;;;5.07;;
51366;SDS011;37458;49.428;8.646;2022-08-11T13:07:27;8.55;;;5.28;;
51366;SDS011;37458;49.428;8.646;2022-08-11T13:09:55;5.20;;;4.60;;
51366;SDS011;37458;49.428;8.646;2022-08-11T13:12:22;4.60;;;4.30;;
51366;SDS011;37458;49.428;8.646;2022-08-11T13:15:07;4.68;;;4.25;;
51366;SDS011;37458;49.428;8.646;2022-08-11T13:17:35;4.90;;;4.32;;
51366;SDS011;37458;49.428;8.646;2022-08-11T13:20:02;6.53;;;5.03;;
51366;SDS011;37458;49.428;8.646;2022-08-11T13:22:29;4.90;;;4.47;;
51366;SDS011;37458;49.428;8.646;2022-08-11T13:24:56;4.40;;;4.03;;
51366;SDS011;37458;49.428;8.646;2022-08-11T13:27:22;4.53;;;4.13;;
51366;SDS011;37458;49.428;8.646;2022-08-11T13:29:49;5.38;;;4.15;;
51366;SDS011;37458;49.428;8.646;2022-08-11T13:32:35;4.30;;;3.75;;
51366;SDS011;37458;49.428;8.646;2022-08-11T13:35:01;6.03;;;3.70;;
51366;SDS011;37458;49.428;8.646;2022-08-11T13:37:27;3.53;;;3.17;;
51366;SDS011;37458;49.428;8.646;2022-08-11T13:39:53;3.70;;;3.38;;
51366;SDS011;37458;49.428;8.646;2022-08-11T13:42:19;3.30;;;3.10;;
51366;SDS011;37458;49.428;8.646;2022-08-11T13:44:46;5.20;;;3.58;;
51366;SDS011;37458;49.428;8.646;2022-08-11T13:47:12;4.28;;;3.38;;
51366;SDS011;37458;49.428;8.646;2022-08-11T13:49:39;5.35;;;3.58;;
51366;SDS011;37458;49.428;8.646;2022-08-11T13:52:07;4.28;;;3.60;;
51366;SDS011;37458;49.428;8.646;2022-08-11T13:54:36;3.90;;;3.60;;
51366;SDS011;37458;49.428;8.646;2022-08-11T13:57:05;6.82;;;3.72;;
51366;SDS011;37458;49.428;8.646;2022-08-11T13:59:31;5.50;;;3.67;;
51366;SDS011;37458;49.428;8.646;2022-08-11T14:01:59;4.03;;;3.42;;
51366;SDS011;37458;49.428;8.646;2022-08-11T14:04:29;4.78;;;4.20;;
51366;SDS011;37458;49.428;8.646;2022-08-11T14:06:58;3.88;;;3.58;;
51366;SDS011;37458;49.428;8.646;2022-08-11T14:09:29;4.35;;;4.05;;
51366;SDS011;37458;49.428;8.646;2022-08-11T14:11:57;4.60;;;3.63;;
51366;SDS011;37458;49.428;8.646;2022-08-11T14:14:44;5.90;;;3.58;;
51366;SDS011;37458;49.428;8.646;2022-08-11T14:17:11;4.28;;;3.88;;
51366;SDS011;37458;49.428;8.646;2022-08-11T14:19:39;5.95;;;3.03;;
51366;SDS011;37458;49.428;8.646;2022-08-11T14:22:05;3.30;;;3.03;;
51366;SDS011;37458;49.428;8.646;2022-08-11T14:24:33;6.85;;;3.03;;
51366;SDS011;37458;49.428;8.646;2022-08-11T14:26:59;4.55;;;3.10;;
51366;SDS011;37458;49.428;8.646;2022-08-11T14:29:26;4.63;;;3.03;;
51366;SDS011;37458;49.428;8.646;2022-08-11T14:31:54;3.13;;;2.83;;
51366;SDS011;37458;49.428;8.646;2022-08-11T14:34:22;3.47;;;3.17;;
51366;SDS011;37458;49.428;8.646;2022-08-11T14:36:52;2.47;;;2.35;;
51366;SDS011;37458;49.428;8.646;2022-08-11T14:39:28;3.78;;;2.55;;
51366;SDS011;37458;49.428;8.646;2022-08-11T14:42:00;5.10;;;2.65;;
51366;SDS011;37458;49.428;8.646;2022-08-11T14:44:49;3.72;;;2.63;;
51366;SDS011;37458;49.428;8.646;2022-08-11T14:47:35;7.03;;;2.60;;
51366;SDS011;37458;49.428;8.646;2022-08-11T14:50:02;2.30;;;2.15;;
51366;SDS011;37458;49.428;8.646;2022-08-11T14:52:30;2.60;;;2.33;;
51366;SDS011;37458;49.428;8.646;2022-08-11T14:54:57;3.38;;;2.30;;
51366;SDS011;37458;49.428;8.646;2022-08-11T14:57:42;3.63;;;2.15;;
51366;SDS011;37458;49.428;8.646;2022-08-11T15:00:09;4.50;;;2.25;;
51366;SDS011;37458;49.428;8.646;2022-08-11T15:02:37;5.72;;;2.25;;
51366;SDS011;37458;49.428;8.646;2022-08-11T15:05:23;6.00;;;2.42;;
51366;SDS011;37458;49.428;8.646;2022-08-11T15:07:49;4.45;;;2.33;;
51366;SDS011;37458;49.428;8.646;2022-08-11T15:10:16;3.40;;;2.30;;
51366;SDS011;37458;49.428;8.646;2022-08-11T15:12:43;2.60;;;2.40;;
51366;SDS011;37458;49.428;8.646;2022-08-11T15:15:09;6.93;;;2.42;;
51366;SDS011;37458;49.428;8.646;2022-08-11T15:17:56;5.13;;;2.10;;
51366;SDS011;37458;49.428;8.646;2022-08-11T15:20:22;4.85;;;2.42;;
51366;SDS011;37458;49.428;8.646;2022-08-11T15:23:08;3.60;;;2.20;;
51366;SDS011;37458;49.428;8.646;2022-08-11T15:25:57;3.15;;;2.22;;
51366;SDS011;37458;49.428;8.646;2022-08-11T15:28:24;2.47;;;2.28;;
51366;SDS011;37458;49.428;8.646;2022-08-11T15:31:10;3.25;;;2.10;;
51366;SDS011;37458;49.428;8.646;2022-08-11T15:33:59;3.15;;;2.08;;
51366;SDS011;37458;49.428;8.646;2022-08-11T15:36:46;4.18;;;2.40;;
51366;SDS011;37458;49.428;8.646;2022-08-11T15:39:44;3.80;;;2.50;;
51366;SDS011;37458;49.428;8.646;2022-08-11T15:42:29;4.72;;;2.10;;
51366;SDS011;37458;49.428;8.646;2022-08-11T15:45:15;3.97;;;2.13;;
51366;SDS011;37458;49.428;8.646;2022-08-11T15:48:34;3.38;;;2.20;;
51366;SDS011;37458;49.428;8.646;2022-08-11T15:53:56;3.78;;;2.10;;
51366;SDS011;37458;49.428;8.646;2022-08-11T15:56:26;4.55;;;2.40;;
51366;SDS011;37458;49.428;8.646;2022-08-11T15:58:53;3.75;;;2.05;;
51366;SDS011;37458;49.428;8.646;2022-08-11T16:01:41;3.60;;;2.10;;
51366;SDS011;37458;49.428;8.646;2022-08-11T16:04:26;2.42;;;2.17;;
51366;SDS011;37458;49.428;8.646;2022-08-11T16:07:10;3.05;;;2.30;;
51366;SDS011;37458;49.428;8.646;2022-08-11T16:09:37;2.25;;;2.10;;
51366;SDS011;37458;49.428;8.646;2022-08-11T16:12:05;3.40;;;2.47;;
51366;SDS011;37458;49.428;8.646;2022-08-11T16:14:35;4.28;;;1.90;;
51366;SDS011;37458;49.428;8.646;2022-08-11T16:17:20;2.50;;;2.30;;
51366;SDS011;37458;49.428;8.646;2022-08-11T16:19:48;2.63;;;2.17;;
51366;SDS011;37458;49.428;8.646;2022-08-11T16:22:19;2.22;;;2.00;;
51366;SDS011;37458;49.428;8.646;2022-08-11T16:24:56;6.75;;;2.15;;
51366;SDS011;37458;49.428;8.646;2022-08-11T16:27:22;2.47;;;2.05;;
51366;SDS011;37458;49.428;8.646;2022-08-11T16:29:49;2.13;;;1.95;;
51366;SDS011;37458;49.428;8.646;2022-08-11T16:32:17;7.28;;;2.25;;
51366;SDS011;37458;49.428;8.646;2022-08-11T16:38:01;1.90;;;1.77;;
51366;SDS011;37458;49.428;8.646;2022-08-11T16:40:47;2.42;;;2.22;;
51366;SDS011;37458;49.428;8.646;2022-08-11T16:43:14;3.95;;;2.05;;
51366;SDS011;37458;49.428;8.646;2022-08-11T16:46:00;2.70;;;2.08;;
51366;SDS011;37458;49.428;8.646;2022-08-11T16:48:45;4.80;;;2.17;;
51366;SDS011;37458;49.428;8.646;2022-08-11T16:51:12;7.07;;;2.00;;
51366;SDS011;37458;49.428;8.646;2022-08-11T16:53:39;2.10;;;2.00;;
51366;SDS011;37458;49.428;8.646;2022-08-11T16:56:08;6.40;;;1.90;;
51366;SDS011;37458;49.428;8.646;2022-08-11T16:58:36;6.03;;;2.63;;
51366;SDS011;37458;49.428;8.646;2022-08-11T17:01:21;3.75;;;2.05;;
51366;SDS011;37458;49.428;8.646;2022-08-11T17:03:59;3.22;;;2.20;;
51366;SDS011;37458;49.428;8.646;2022-08-11T17:06:46;2.20;;;2.00;;
51366;SDS011;37458;49.428;8.646;2022-08-11T17:09:32;3.55;;;2.00;;
51366;SDS011;37458;49.428;8.646;2022-08-11T17:12:19;4.10;;;1.90;;
51366;SDS011;37458;49.428;8.646;2022-08-11T17:15:05;3.15;;;2.40;;
51366;SDS011;37458;49.428;8.646;2022-08-11T17:17:54;5.25;;;2.00;;
51366;SDS011;37458;49.428;8.646;2022-08-11T17:20:21;4.60;;;2.13;;
51366;SDS011;37458;49.428;8.646;2022-08-11T17:22:48;3.17;;;2.20;;
51366;SDS011;37458;49.428;8.646;2022-08-11T17:25:33;3.63;;;1.80;;
51366;SDS011;37458;49.428;8.646;2022-08-11T17:27:59;3.75;;;2.10;;
51366;SDS011;37458;49.428;8.646;2022-08-11T17:30:25;2.55;;;1.88;;
51366;SDS011;37458;49.428;8.646;2022-08-11T17:33:12;5.05;;;1.85;;
51366;SDS011;37458;49.428;8.646;2022-08-11T17:35:58;2.28;;;2.08;;
51366;SDS011;37458;49.428;8.646;2022-08-11T17:38:24;3.67;;;2.10;;
51366;SDS011;37458;49.428;8.646;2022-08-11T17:40:54;5.43;;;1.85;;
51366;SDS011;37458;49.428;8.646;2022-08-11T17:43:40;3.67;;;2.10;;
51366;SDS011;37458;49.428;8.646;2022-08-11T17:46:26;2.75;;;2.28;;
51366;SDS011;37458;49.428;8.646;2022-08-11T17:49:11;3.85;;;2.00;;
51366;SDS011;37458;49.428;8.646;2022-08-11T17:51:38;4.20;;;2.00;;
51366;SDS011;37458;49.428;8.646;2022-08-11T17:54:24;2.53;;;1.95;;
51366;SDS011;37458;49.428;8.646;2022-08-11T17:57:09;4.25;;;1.90;;
51366;SDS011;37458;49.428;8.646;2022-08-11T17:59:55;2.80;;;2.15;;
51366;SDS011;37458;49.428;8.646;2022-08-11T18:02:28;5.30;;;2.38;;
51366;SDS011;37458;49.428;8.646;2022-08-11T18:05:14;2.45;;;1.80;;
51366;SDS011;37458;49.428;8.646;2022-08-11T18:07:42;4.63;;;2.10;;
51366;SDS011;37458;49.428;8.646;2022-08-11T18:10:28;4.93;;;2.25;;
51366;SDS011;37458;49.428;8.646;2022-08-11T18:13:14;3.22;;;2.20;;
51366;SDS011;37458;49.428;8.646;2022-08-11T18:15:59;7.82;;;2.17;;
51366;SDS011;37458;49.428;8.646;2022-08-11T18:18:44;4.00;;;2.33;;
51366;SDS011;37458;49.428;8.646;2022-08-11T18:21:29;3.08;;;2.47;;
51366;SDS011;37458;49.428;8.646;2022-08-11T18:24:14;2.85;;;2.08;;
51366;SDS011;37458;49.428;8.646;2022-08-11T18:27:01;2.22;;;2.03;;
51366;SDS011;37458;49.428;8.646;2022-08-11T18:29:48;2.33;;;2.10;;
51366;SDS011;37458;49.428;8.646;2022-08-11T18:32:33;2.40;;;2.00;;
51366;SDS011;37458;49.428;8.646;2022-08-11T18:35:18;2.38;;;2.17;;
51366;SDS011;37458;49.428;8.646;2022-08-11T18:38:03;5.35;;;2.22;;
51366;SDS011;37458;49.428;8.646;2022-08-11T18:40:49;2.47;;;2.28;;
51366;SDS011;37458;49.428;8.646;2022-08-11T18:43:36;2.20;;;2.00;;
51366;SDS011;37458;49.428;8.646;2022-08-11T18:46:21;7.55;;;2.30;;
51366;SDS011;37458;49.428;8.646;2022-08-11T18:49:11;2.30;;;2.13;;
51366;SDS011;37458;49.428;8.646;2022-08-11T18:51:57;2.78;;;2.38;;
51366;SDS011;37458;49.428;8.646;2022-08-11T18:54:43;5.15;;;2.78;;
51366;SDS011;37458;49.428;8.646;2022-08-11T18:57:29;6.40;;;2.15;;
51366;SDS011;37458;49.428;8.646;2022-08-11T19:00:15;4.35;;;2.17;;
51366;SDS011;37458;49.428;8.646;2022-08-11T19:03:00;5.70;;;2.35;;
51366;SDS011;37458;49.428;8.646;2022-08-11T19:05:46;2.50;;;2.30;;